createdAt,value
2018-02-24T00:00:21.751Z,84.03
2018-02-24T00:02:49.325Z,81.90
2018-02-24T00:05:16.925Z,93.17
2018-02-24T00:07:44.567Z,76.43
2018-02-24T00:10:12.147Z,94.83
2018-02-24T00:12:39.785Z,73.37
2018-02-24T00:15:07.416Z,77.07
2018-02-24T00:17:35.054Z,83.50
2018-02-24T00:20:02.678Z,77.10
2018-02-24T00:22:30.390Z,88.87
2018-02-24T00:24:57.960Z,80.37
2018-02-24T00:27:25.538Z,77.77
2018-02-24T00:29:53.174Z,71.80
2018-02-24T00:32:20.759Z,84.87
2018-02-24T00:34:48.349Z,72.43
2018-02-24T00:37:15.989Z,83.27
2018-02-24T00:39:43.574Z,78.90
2018-02-24T00:42:11.212Z,85.00
2018-02-24T00:44:38.919Z,78.40
2018-02-24T00:47:06.530Z,78.07
2018-02-24T00:49:34.117Z,74.13
2018-02-24T00:52:01.761Z,71.37
2018-02-24T00:54:29.366Z,76.53
2018-02-24T00:56:56.974Z,77.97
2018-02-24T00:59:24.641Z,82.77
2018-02-24T01:01:52.231Z,86.67
2018-02-24T01:04:19.870Z,84.03
2018-02-24T01:06:47.511Z,78.60
2018-02-24T01:09:15.086Z,91.80
2018-02-24T01:11:42.710Z,86.07
2018-02-24T01:14:10.414Z,101.83
2018-02-24T01:16:38.050Z,96.10
2018-02-24T01:19:05.680Z,112.83
2018-02-24T01:21:33.384Z,104.67
2018-02-24T01:24:01.015Z,96.97
2018-02-24T01:26:28.589Z,120.90
2018-02-24T01:28:56.272Z,101.20
2018-02-24T01:31:23.905Z,109.47
2018-02-24T01:33:51.474Z,105.57
2018-02-24T01:36:19.103Z,107.53
2018-02-24T01:38:46.733Z,113.27
2018-02-24T01:41:14.390Z,126.30
2018-02-24T01:43:42.269Z,119.90
2018-02-24T01:46:09.846Z,124.30
2018-02-24T01:48:37.432Z,112.47
2018-02-24T01:51:05.041Z,128.20
2018-02-24T01:53:32.612Z,117.90
2018-02-24T01:56:00.190Z,120.00
2018-02-24T01:58:27.828Z,105.67
2018-02-24T02:00:55.419Z,130.80
2018-02-24T02:03:22.994Z,116.90
2018-02-24T02:05:50.627Z,107.17
2018-02-24T02:08:18.211Z,116.30
2018-02-24T02:10:45.787Z,103.87
2018-02-24T02:13:13.431Z,108.10
2018-02-24T02:15:41.073Z,105.23
2018-02-24T02:18:08.650Z,123.43
2018-02-24T02:20:36.349Z,102.73
2018-02-24T02:23:03.923Z,115.10
2018-02-24T02:25:31.499Z,90.43
2018-02-24T02:27:59.136Z,99.70
2018-02-24T02:30:26.705Z,109.33
2018-02-24T02:32:54.296Z,96.70
2018-02-24T02:35:21.947Z,94.57
2018-02-24T02:37:49.600Z,78.33
2018-02-24T02:40:17.234Z,88.67
2018-02-24T02:42:44.931Z,70.47
2018-02-24T02:45:12.508Z,66.20
2018-02-24T02:47:40.084Z,56.77
2018-02-24T02:50:07.819Z,63.77
2018-02-24T02:52:35.391Z,67.23
2018-02-24T02:55:02.972Z,74.73
2018-02-24T02:57:30.651Z,84.20
2018-02-24T02:59:58.210Z,66.13
2018-02-24T03:02:25.790Z,87.60
2018-02-24T03:04:53.427Z,82.47
2018-02-24T03:07:20.995Z,75.23
2018-02-24T03:09:48.615Z,83.50
2018-02-24T03:12:16.250Z,83.63
2018-02-24T03:14:43.889Z,89.93
2018-02-24T03:17:11.475Z,91.43
2018-02-24T03:19:39.157Z,81.67
2018-02-24T03:22:06.775Z,84.37
2018-02-24T03:24:34.405Z,112.73
2018-02-24T03:27:02.104Z,100.70
2018-02-24T03:29:29.756Z,108.07
2018-02-24T03:31:57.386Z,91.40
2018-02-24T03:34:25.021Z,109.27
2018-02-24T03:36:52.655Z,118.27
2018-02-24T03:39:20.283Z,115.43
2018-02-24T03:41:47.954Z,110.50
2018-02-24T03:44:15.553Z,121.27
2018-02-24T03:46:43.128Z,109.10
2018-02-24T03:49:10.758Z,168.50
2018-02-24T03:51:38.344Z,143.23
2018-02-24T03:54:05.972Z,137.47
2018-02-24T03:56:33.607Z,123.10
2018-02-24T03:59:01.179Z,159.47
2018-02-24T04:01:28.747Z,145.87
2018-02-24T04:03:56.379Z,133.40
2018-02-24T04:06:23.994Z,137.50
2018-02-24T04:08:51.583Z,137.37
2018-02-24T04:11:19.263Z,177.30
2018-02-24T04:13:46.816Z,187.20
2018-02-24T04:16:14.393Z,185.20
2018-02-24T04:18:42.029Z,179.17
2018-02-24T04:21:09.604Z,230.60
2018-02-24T04:23:37.173Z,266.90
2018-02-24T04:26:04.869Z,282.80
2018-02-24T04:28:32.500Z,201.57
2018-02-24T04:31:00.064Z,333.67
2018-02-24T04:33:27.771Z,216.17
2018-02-24T04:35:55.414Z,308.83
2018-02-24T04:38:22.986Z,223.93
2018-02-24T04:40:50.676Z,259.10
2018-02-24T04:43:18.316Z,319.97
2018-02-24T04:45:45.891Z,381.37
2018-02-24T04:48:13.540Z,233.93
2018-02-24T04:50:41.180Z,268.87
2018-02-24T04:53:08.756Z,248.33
2018-02-24T04:55:36.417Z,232.13
2018-02-24T04:58:03.991Z,246.43
2018-02-24T05:00:31.607Z,227.10
2018-02-24T05:02:59.287Z,290.27
2018-02-24T05:08:08.860Z,203.87
2018-02-24T05:10:36.442Z,230.20
2018-02-24T05:13:04.024Z,226.93
2018-02-24T05:15:31.699Z,211.73
2018-02-24T05:17:59.331Z,214.30
2018-02-24T05:20:26.913Z,230.00
2018-02-24T05:22:54.543Z,208.30
2018-02-24T05:25:22.262Z,188.30
2018-02-24T05:27:49.915Z,182.70
2018-02-24T05:30:17.534Z,185.93
2018-02-24T05:32:45.164Z,188.80
2018-02-24T05:35:12.808Z,163.40
2018-02-24T05:37:40.441Z,160.70
2018-02-24T05:40:08.067Z,146.10
2018-02-24T05:42:35.643Z,148.47
2018-02-24T05:45:03.335Z,182.50
2018-02-24T05:47:30.972Z,147.73
2018-02-24T05:49:58.534Z,169.93
2018-02-24T05:52:26.165Z,144.97
2018-02-24T05:54:53.845Z,165.77
2018-02-24T05:57:21.435Z,153.77
2018-02-24T05:59:49.135Z,131.00
2018-02-24T06:02:16.712Z,120.03
2018-02-24T06:04:44.298Z,101.17
2018-02-24T06:07:11.929Z,131.37
2018-02-24T06:09:39.498Z,89.90
2018-02-24T06:12:07.047Z,123.53
2018-02-24T06:14:34.734Z,115.10
2018-02-24T06:17:02.310Z,160.17
2018-02-24T06:19:29.873Z,124.27
2018-02-24T06:21:57.569Z,118.60
2018-02-24T06:24:25.197Z,126.20
2018-02-24T06:26:52.813Z,78.87
2018-02-24T06:29:20.450Z,90.23
2018-02-24T06:31:48.149Z,106.20
2018-02-24T06:34:16.533Z,108.83
2018-02-24T06:36:44.322Z,85.80
2018-02-24T06:39:12.128Z,85.87
2018-02-24T06:41:39.842Z,96.90
2018-02-24T06:44:07.548Z,88.13
2018-02-24T06:46:35.600Z,85.70
2018-02-24T06:49:03.291Z,122.47
2018-02-24T06:51:31.129Z,97.80
2018-02-24T06:53:58.789Z,100.93
2018-02-24T06:56:26.528Z,109.00
2018-02-24T06:58:54.249Z,114.63
2018-02-24T07:01:21.890Z,104.50
2018-02-24T07:03:49.453Z,100.83
2018-02-24T07:06:17.084Z,113.57
2018-02-24T07:08:44.729Z,100.27
2018-02-24T07:11:12.310Z,136.57
2018-02-24T07:13:39.950Z,117.13
2018-02-24T07:16:08.119Z,140.00
2018-02-24T07:18:35.686Z,102.57
2018-02-24T07:21:03.411Z,103.03
2018-02-24T07:23:30.984Z,138.53
2018-02-24T07:25:58.563Z,110.97
2018-02-24T07:28:26.285Z,101.27
2018-02-24T07:30:53.840Z,107.90
2018-02-24T07:33:21.467Z,101.80
2018-02-24T07:35:49.104Z,119.33
2018-02-24T07:38:16.682Z,116.03
2018-02-24T07:40:44.255Z,99.57
2018-02-24T07:43:11.844Z,86.40
2018-02-24T07:45:39.450Z,82.90
2018-02-24T07:48:07.018Z,82.67
2018-02-24T07:50:34.674Z,75.73
2018-02-24T07:53:02.248Z,84.70
2018-02-24T07:55:29.898Z,104.07
2018-02-24T07:57:57.474Z,92.33
2018-02-24T08:00:25.103Z,89.57
2018-02-24T08:02:52.791Z,94.47
2018-02-24T08:05:20.395Z,86.47
2018-02-24T08:07:47.957Z,85.03
2018-02-24T08:10:15.540Z,89.70
2018-02-24T08:12:43.114Z,98.60
2018-02-24T08:15:10.804Z,82.80
2018-02-24T08:17:38.369Z,86.63
2018-02-24T08:20:05.943Z,98.67
2018-02-24T08:22:33.519Z,87.73
2018-02-24T08:25:01.151Z,66.10
2018-02-24T08:27:28.767Z,96.43
2018-02-24T08:29:56.395Z,99.43
2018-02-24T08:32:23.963Z,77.00
2018-02-24T08:34:51.517Z,87.50
2018-02-24T08:37:19.172Z,76.93
2018-02-24T08:39:47.208Z,70.53
2018-02-24T08:42:14.795Z,98.93
2018-02-24T08:44:42.387Z,79.80
2018-02-24T08:47:09.982Z,87.43
2018-02-24T08:49:37.565Z,88.50
2018-02-24T08:52:05.190Z,101.30
2018-02-24T08:54:32.764Z,79.33
2018-02-24T08:57:00.391Z,78.83
2018-02-24T08:59:27.974Z,90.93
2018-02-24T09:01:55.541Z,69.17
2018-02-24T09:04:23.174Z,79.97
2018-02-24T09:06:50.743Z,75.17
2018-02-24T09:09:18.384Z,83.13
2018-02-24T09:11:45.970Z,87.77
2018-02-24T09:14:13.540Z,73.23
2018-02-24T09:16:41.277Z,75.60
2018-02-24T09:19:08.884Z,93.33
2018-02-24T09:21:36.515Z,105.27
2018-02-24T09:24:04.105Z,76.20
2018-02-24T09:26:31.693Z,68.60
2018-02-24T09:28:59.318Z,93.03
2018-02-24T09:31:26.948Z,74.33
2018-02-24T09:33:54.534Z,93.60
2018-02-24T09:36:22.114Z,100.77
2018-02-24T09:38:49.713Z,93.70
2018-02-24T09:41:17.345Z,95.10
2018-02-24T09:43:44.979Z,106.50
2018-02-24T09:46:12.558Z,97.03
2018-02-24T09:48:40.185Z,81.93
2018-02-24T09:51:07.819Z,84.90
2018-02-24T09:53:35.500Z,88.33
2018-02-24T09:56:03.101Z,85.03
2018-02-24T09:58:30.710Z,105.40
2018-02-24T10:00:58.295Z,103.27
2018-02-24T10:03:25.860Z,89.03
2018-02-24T10:05:53.617Z,86.43
2018-02-24T10:08:21.221Z,86.40
2018-02-24T10:10:48.787Z,94.03
2018-02-24T10:13:16.419Z,83.07
2018-02-24T10:15:43.986Z,98.80
2018-02-24T10:18:11.608Z,93.40
2018-02-24T10:20:39.159Z,101.60
2018-02-24T10:23:06.722Z,92.37
2018-02-24T10:25:34.294Z,94.30
2018-02-24T10:28:01.854Z,97.37
2018-02-24T10:30:30.454Z,103.73
2018-02-24T10:32:58.034Z,101.00
2018-02-24T10:35:25.674Z,89.77
2018-02-24T10:37:53.255Z,126.53
2018-02-24T10:40:20.827Z,102.33
2018-02-24T10:42:48.458Z,104.97
2018-02-24T10:45:16.029Z,100.20
2018-02-24T10:47:43.604Z,110.23
2018-02-24T10:50:11.257Z,108.80
2018-02-24T10:52:38.836Z,110.70
2018-02-24T10:55:06.510Z,114.53
2018-02-24T10:57:34.774Z,86.13
2018-02-24T11:00:02.404Z,107.37
2018-02-24T11:02:30.065Z,104.90
2018-02-24T11:04:57.634Z,94.50
2018-02-24T11:07:25.268Z,87.47
2018-02-24T11:09:52.838Z,96.40
2018-02-24T11:12:20.429Z,106.40
2018-02-24T11:14:48.019Z,86.53
2018-02-24T11:17:15.605Z,86.97
2018-02-24T11:19:43.284Z,114.50
2018-02-24T11:22:10.859Z,96.33
2018-02-24T11:24:38.503Z,100.00
2018-02-24T11:27:06.144Z,92.77
2018-02-24T11:29:33.739Z,70.40
2018-02-24T11:32:01.377Z,70.40
2018-02-24T11:34:29.127Z,56.83
2018-02-24T11:36:56.794Z,73.83
2018-02-24T11:39:29.967Z,77.40
2018-02-24T11:41:57.542Z,71.10
2018-02-24T11:44:25.183Z,48.97
2018-02-24T11:46:53.886Z,54.10
2018-02-24T11:49:21.470Z,85.63
2018-02-24T11:51:49.226Z,88.57
2018-02-24T11:54:16.790Z,78.17
2018-02-24T11:56:44.446Z,115.97
2018-02-24T11:59:12.243Z,78.97
2018-02-24T12:01:39.806Z,88.10
2018-02-24T12:04:07.390Z,81.53
2018-02-24T12:06:35.059Z,75.73
2018-02-24T12:09:02.686Z,81.83
2018-02-24T12:11:30.312Z,67.70
2018-02-24T12:13:57.942Z,86.93
2018-02-24T12:16:25.517Z,60.37
2018-02-24T12:18:53.140Z,68.73
2018-02-24T12:21:20.762Z,77.43
2018-02-24T12:23:48.330Z,86.90
2018-02-24T12:26:15.962Z,73.27
2018-02-24T12:28:43.510Z,82.60
2018-02-24T12:31:11.095Z,97.93
2018-02-24T12:33:39.698Z,82.27
2018-02-24T12:36:07.324Z,81.23
2018-02-24T12:38:34.988Z,74.63
2018-02-24T12:41:02.582Z,67.10
2018-02-24T12:43:30.155Z,74.47
2018-02-24T12:45:57.863Z,81.00
2018-02-24T12:48:25.463Z,73.73
2018-02-24T12:50:53.033Z,87.00
2018-02-24T12:53:20.613Z,81.53
2018-02-24T12:55:48.196Z,91.10
2018-02-24T12:58:15.826Z,94.53
2018-02-24T13:00:43.433Z,79.67
2018-02-24T13:03:11.028Z,76.27
2018-02-24T13:05:39.749Z,77.50
2018-02-24T13:08:07.375Z,67.47
2018-02-24T13:10:34.992Z,77.53
2018-02-24T13:13:02.558Z,104.67
2018-02-24T13:15:30.188Z,85.00
2018-02-24T13:17:57.758Z,86.77
2018-02-24T13:20:25.384Z,88.07
2018-02-24T13:22:53.059Z,80.60
2018-02-24T13:25:21.362Z,78.30
2018-02-24T13:27:49.006Z,80.63
2018-02-24T13:30:16.583Z,76.60
2018-02-24T13:32:44.187Z,75.67
2018-02-24T13:35:11.803Z,69.47
2018-02-24T13:37:39.476Z,68.00
2018-02-24T13:40:07.255Z,68.67
2018-02-24T13:42:34.853Z,56.63
2018-02-24T13:45:02.541Z,62.17
2018-02-24T13:47:30.223Z,62.57
2018-02-24T13:49:57.892Z,69.83
2018-02-24T13:52:25.558Z,75.70
2018-02-24T13:54:53.147Z,106.43
2018-02-24T13:57:20.859Z,76.00
2018-02-24T13:59:48.494Z,67.60
2018-02-24T14:02:16.076Z,87.07
2018-02-24T14:04:43.988Z,115.03
2018-02-24T14:07:11.659Z,99.20
2018-02-24T14:09:39.233Z,110.80
2018-02-24T14:12:07.797Z,104.70
2018-02-24T14:14:35.389Z,123.43
2018-02-24T14:17:03.195Z,119.87
2018-02-24T14:19:30.882Z,115.57
2018-02-24T14:21:58.458Z,131.33
2018-02-24T14:24:26.439Z,161.57
2018-02-24T14:26:54.011Z,131.70
2018-02-24T14:29:21.591Z,134.20
2018-02-24T14:31:49.214Z,141.57
2018-02-24T14:34:16.860Z,162.63
2018-02-24T14:36:44.640Z,194.40
2018-02-24T14:39:12.257Z,195.33
2018-02-24T14:41:39.826Z,156.60
2018-02-24T14:44:07.417Z,163.53
2018-02-24T14:46:35.431Z,168.97
2018-02-24T14:49:03.075Z,170.80
2018-02-24T14:51:30.704Z,139.90
2018-02-24T14:53:58.278Z,158.37
2018-02-24T14:56:26.048Z,137.70
2018-02-24T14:58:53.816Z,133.43
2018-02-24T15:01:21.485Z,147.97
2018-02-24T15:03:49.093Z,129.50
2018-02-24T15:06:16.811Z,155.53
2018-02-24T15:08:44.627Z,138.10
2018-02-24T15:11:12.280Z,146.30
2018-02-24T15:13:39.980Z,122.17
2018-02-24T15:16:07.620Z,131.40
2018-02-24T15:18:35.252Z,141.77
2018-02-24T15:21:02.940Z,119.90
2018-02-24T15:23:33.034Z,121.97
2018-02-24T15:26:00.659Z,112.73
2018-02-24T15:28:28.293Z,113.80
2018-02-24T15:30:55.871Z,115.40
2018-02-24T15:33:23.455Z,124.17
2018-02-24T15:35:51.070Z,139.53
2018-02-24T15:38:18.739Z,110.73
2018-02-24T15:40:46.377Z,109.77
2018-02-24T15:43:13.959Z,113.77
2018-02-24T15:45:41.551Z,142.13
2018-02-24T15:48:09.169Z,129.93
2018-02-24T15:50:36.836Z,140.00
2018-02-24T15:53:04.458Z,134.50
2018-02-24T15:55:32.050Z,145.33
2018-02-24T15:57:59.624Z,144.77
2018-02-24T16:00:27.199Z,139.97
2018-02-24T16:02:54.826Z,145.67
2018-02-24T16:05:22.403Z,144.00
2018-02-24T16:07:49.995Z,128.27
2018-02-24T16:10:17.583Z,138.93
2018-02-24T16:12:45.206Z,157.80
2018-02-24T16:15:12.938Z,143.63
2018-02-24T16:17:40.579Z,155.30
2018-02-24T16:20:08.173Z,183.93
2018-02-24T16:22:35.843Z,193.10
2018-02-24T16:25:03.498Z,175.33
2018-02-24T16:27:31.199Z,171.63
2018-02-24T16:29:58.835Z,174.40
2018-02-24T16:32:26.409Z,136.40
2018-02-24T16:34:54.003Z,125.23
2018-02-24T16:37:21.704Z,151.50
2018-02-24T16:39:49.407Z,165.83
2018-02-24T16:42:16.970Z,165.90
2018-02-24T16:44:44.696Z,197.20
2018-02-24T16:47:12.295Z,143.80
2018-02-24T16:49:39.866Z,134.83
2018-02-24T16:52:07.494Z,437.93
2018-02-24T16:54:35.078Z,279.57
2018-02-24T16:57:02.645Z,250.17
2018-02-24T16:59:30.229Z,235.10
2018-02-24T17:01:57.780Z,224.93
2018-02-24T17:04:25.392Z,279.03
2018-02-24T17:06:52.985Z,434.07
2018-02-24T17:09:20.541Z,123.13
2018-02-24T17:11:48.181Z,111.27
2018-02-24T17:14:15.753Z,103.27
2018-02-24T17:16:43.444Z,95.60
2018-02-24T17:19:11.020Z,107.90
2018-02-24T17:21:38.591Z,91.00
2018-02-24T17:24:06.183Z,94.50
2018-02-24T17:26:33.752Z,122.63
2018-02-24T17:29:01.379Z,115.43
2018-02-24T17:31:28.951Z,124.70
2018-02-24T17:33:56.579Z,129.33
2018-02-24T17:36:24.220Z,116.30
2018-02-24T17:38:51.832Z,117.67
2018-02-24T17:41:19.459Z,118.00
2018-02-24T17:43:47.031Z,122.93
2018-02-24T17:46:14.615Z,135.97
2018-02-24T17:48:42.252Z,136.37
2018-02-24T17:51:09.884Z,123.53
2018-02-24T17:53:37.573Z,128.83
2018-02-24T17:56:05.334Z,156.97
2018-02-24T17:58:32.946Z,130.10
2018-02-24T18:01:00.544Z,132.13
2018-02-24T18:03:28.158Z,134.80
2018-02-24T18:05:55.812Z,157.10
2018-02-24T18:08:23.396Z,121.67
2018-02-24T18:10:50.988Z,140.53
2018-02-24T18:13:18.626Z,113.43
2018-02-24T18:15:46.352Z,129.90
2018-02-24T18:18:13.994Z,103.17
2018-02-24T18:20:41.624Z,116.57
2018-02-24T18:23:09.278Z,121.70
2018-02-24T18:25:36.854Z,123.97
2018-02-24T18:28:04.421Z,143.63
2018-02-24T18:30:32.053Z,123.10
2018-02-24T18:32:59.622Z,114.97
2018-02-24T18:35:27.251Z,125.63
2018-02-24T18:37:54.883Z,127.60
2018-02-24T18:40:22.459Z,130.50
2018-02-24T18:42:50.034Z,117.30
2018-02-24T18:45:17.667Z,105.57
2018-02-24T18:47:45.406Z,108.80
2018-02-24T18:50:13.067Z,103.67
2018-02-24T18:52:41.440Z,125.90
2018-02-24T18:55:09.073Z,87.23
2018-02-24T18:57:36.776Z,75.97
2018-02-24T19:00:04.551Z,94.90
2018-02-24T19:02:32.146Z,110.23
2018-02-24T19:04:59.732Z,98.30
2018-02-24T19:07:27.306Z,97.60
2018-02-24T19:09:54.877Z,107.23
2018-02-24T19:12:22.538Z,100.47
2018-02-24T19:14:50.099Z,89.07
2018-02-24T19:17:17.767Z,92.40
2018-02-24T19:19:45.435Z,78.03
2018-02-24T19:22:13.063Z,62.47
2018-02-24T19:24:40.787Z,50.63
2018-02-24T19:27:08.411Z,61.70
2018-02-24T19:29:36.071Z,91.93
2018-02-24T19:32:03.656Z,75.97
2018-02-24T19:34:31.333Z,76.10
2018-02-24T19:36:58.976Z,103.23
2018-02-24T19:39:26.538Z,90.00
2018-02-24T19:41:54.106Z,111.67
2018-02-24T19:44:21.744Z,94.50
2018-02-24T19:46:49.310Z,88.47
2018-02-24T19:49:16.945Z,45.23
2018-02-24T19:51:44.578Z,66.63
2018-02-24T19:54:12.189Z,83.90
2018-02-24T19:56:39.763Z,51.63
2018-02-24T19:59:07.335Z,53.00
2018-02-24T20:01:34.978Z,61.03
2018-02-24T20:04:02.611Z,109.43
2018-02-24T20:06:30.292Z,69.50
2018-02-24T20:08:57.936Z,83.80
2018-02-24T20:11:25.498Z,80.83
2018-02-24T20:13:55.479Z,78.30
2018-02-24T20:16:23.108Z,97.97
2018-02-24T20:18:50.699Z,79.50
2018-02-24T20:21:18.275Z,97.30
2018-02-24T20:23:45.857Z,74.87
2018-02-24T20:26:16.178Z,74.20
2018-02-24T20:28:43.756Z,56.17
2018-02-24T20:31:11.330Z,56.70
2018-02-24T20:33:38.977Z,59.00
2018-02-24T20:36:06.527Z,57.47
2018-02-24T20:38:34.221Z,56.00
2018-02-24T20:41:01.787Z,54.43
2018-02-24T20:43:29.353Z,53.60
2018-02-24T20:45:56.979Z,51.80
2018-02-24T20:48:24.621Z,40.97
2018-02-24T20:50:52.242Z,48.27
2018-02-24T20:53:19.802Z,59.77
2018-02-24T20:55:47.424Z,59.47
2018-02-24T20:58:15.036Z,66.47
2018-02-24T21:00:42.598Z,73.50
2018-02-24T21:03:10.296Z,60.00
2018-02-24T21:05:37.916Z,50.87
2018-02-24T21:08:05.543Z,46.60
2018-02-24T21:10:33.122Z,49.43
2018-02-24T21:13:00.767Z,45.03
2018-02-24T21:15:28.532Z,44.17
2018-02-24T21:17:56.114Z,41.23
2018-02-24T21:20:23.679Z,44.07
2018-02-24T21:22:51.235Z,43.07
2018-02-24T21:25:18.799Z,45.67
2018-02-24T21:27:46.418Z,48.17
2018-02-24T21:30:14.039Z,49.90
2018-02-24T21:32:41.707Z,51.03
2018-02-24T21:35:09.322Z,41.70
2018-02-24T21:37:36.881Z,52.10
2018-02-24T21:40:04.502Z,49.17
2018-02-24T21:42:32.104Z,55.77
2018-02-24T21:44:59.656Z,45.30
2018-02-24T21:47:27.288Z,50.00
2018-02-24T21:49:55.779Z,56.67
2018-02-24T21:52:23.414Z,47.07
2018-02-24T21:54:50.976Z,58.53
2018-02-24T21:57:18.643Z,48.03
2018-02-24T22:02:22.268Z,53.77
2018-02-24T22:04:49.965Z,60.00
2018-02-24T22:07:17.661Z,55.37
2018-02-24T22:09:45.312Z,49.90
2018-02-24T22:12:12.888Z,54.47
2018-02-24T22:14:40.458Z,41.83
2018-02-24T22:17:08.100Z,51.43
2018-02-24T22:19:35.670Z,47.00
2018-02-24T22:22:03.238Z,45.83
2018-02-24T22:24:30.875Z,50.17
2018-02-24T22:26:58.455Z,47.17
2018-02-24T22:29:26.087Z,54.20
2018-02-24T22:31:53.711Z,47.50
2018-02-24T22:34:21.347Z,51.90
2018-02-24T22:36:48.926Z,52.87
2018-02-24T22:39:16.508Z,61.37
2018-02-24T22:41:44.204Z,53.10
2018-02-24T22:44:11.779Z,49.17
2018-02-24T22:46:39.355Z,57.70
2018-02-24T22:49:06.931Z,47.07
2018-02-24T22:51:34.556Z,51.03
2018-02-24T22:54:02.212Z,47.90
2018-02-24T22:56:29.835Z,56.07
2018-02-24T22:58:57.473Z,58.30
2018-02-24T23:01:25.089Z,53.33
2018-02-24T23:03:52.652Z,54.37
2018-02-24T23:06:20.344Z,58.03
